Time;durP1;ratioP1;P1;durP2;ratioP2;P2;SDS_P1;SDS_P2;PMS_P1;PMS_P2;Temp;Humidity;BMP_temperature;BMP_pressure;BME280_temperature;BME280_humidity;BME280_pressure;Samples;Min_cycle;Max_cycle;Signal;HPM_P1;HPM_P2
2022/03/24 00:00:07;;;;;;;;;;;;;;;;;;5060098;28;19939;-62
2022/03/24 00:02:33;;;;;;;;;;;;;;;;;;5064500;28;20385;-61
2022/03/24 00:04:59;;;;;;;;;;;;;;;;;;5054204;28;19932;-61
2022/03/24 00:07:25;;;;;;;;;;;;;;;;;;5061826;28;20019;-61
2022/03/24 00:09:51;;;;;;;;;;;;;;;;;;5063727;28;19996;-62
2022/03/24 00:12:18;;;;;;;;;;;;;;;;;;5054372;28;19929;-61
2022/03/24 00:14:44;;;;;;;;;;;;;;;;;;5064110;28;19928;-62
2022/03/24 00:17:10;;;;;;;;;;;;;;;;;;5064246;28;19932;-61
2022/03/24 00:19:36;;;;;;;;;;;;;;;;;;5063456;28;19924;-61
2022/03/24 00:22:03;;;;;;;;;;;;;;;;;;5064060;28;20400;-61
2022/03/24 00:24:29;;;;;;;;;;;;;;;;;;5062885;28;19955;-61
2022/03/24 00:26:56;;;;;;;;;;;;;;;;;;5061947;28;20279;-65
2022/03/24 00:29:22;;;;;;;;;;;;;;;;;;5064575;28;19935;-66
2022/03/24 00:31:48;;;;;;;;;;;;;;;;;;5061744;28;19932;-63
2022/03/24 00:34:14;;;;;;;;;;;;;;;;;;5060696;28;19943;-63
2022/03/24 00:36:40;;;;;;;;;;;;;;;;;;5057377;28;19935;-64
2022/03/24 00:39:06;;;;;;;;;;;;;;;;;;5062812;28;19928;-64
2022/03/24 00:41:33;;;;;;;;;;;;;;;;;;5063803;28;19932;-62
2022/03/24 00:44:00;;;;;;;;;;;;;;;;;;5053683;28;20095;-62
2022/03/24 00:46:26;;;;;;;;;;;;;;;;;;5059662;28;19929;-62
2022/03/24 00:48:52;;;;;;;;;;;;;;;;;;5061575;28;20354;-62
2022/03/24 00:51:18;;;;;;;;;;;;;;;;;;5058281;28;19924;-62
2022/03/24 00:53:45;;;;;;;;;;;;;;;;;;5061237;28;19925;-62
2022/03/24 00:56:11;;;;;;;;;;;;;;;;;;4711968;28;10000484;-62
2022/03/24 00:58:38;;;;;;;;;;;;;;;;;;5058968;28;19932;-62
2022/03/24 01:01:04;;;;;;;;;;;;;;;;;;5064662;28;19979;-62
2022/03/24 01:03:30;;;;;;;;;;;;;;;;;;5065212;28;20034;-61
2022/03/24 01:05:57;;;;;;;;;;;;;;;;;;5065638;28;20251;-61
2022/03/24 01:08:23;;;;;;;;;;;;;;;;;;5060833;28;20156;-61
2022/03/24 01:10:49;;;;;;;;;;;;;;;;;;5068048;28;19924;-61
2022/03/24 01:13:16;;;;;;;;;;;;;;;;;;5081033;22;19928;-62
2022/03/24 01:15:44;;;;;;;;;;;;;;;;;;5047790;28;19975;-61
2022/03/24 01:18:10;;;;;;;;;;;;;;;;;;5048870;28;19970;-62
2022/03/24 01:20:37;;;;;;;;;;;;;;;;;;5049143;28;19932;-62
2022/03/24 01:23:03;;;;;;;;;;;;;;;;;;5047216;28;20233;-62
2022/03/24 01:25:29;;;;;;;;;;;;;;;;;;5048933;28;19929;-63
2022/03/24 01:27:56;;;;;;;;;;;;;;;;;;5049145;28;19935;-62
2022/03/24 01:30:22;;;;;;;;;;;;;;;;;;5040830;28;19933;-63
2022/03/24 01:32:48;;;;;;;;;;;;;;;;;;5042885;28;19925;-63
2022/03/24 01:35:15;;;;;;;;;;;;;;;;;;5049118;28;19932;-64
2022/03/24 01:37:41;;;;;;;;;;;;;;;;;;5051497;28;19924;-63
2022/03/24 01:40:07;;;;;;;;;;;;;;;;;;5050678;28;20027;-64
2022/03/24 01:42:34;;;;;;;;;;;;;;;;;;5050933;28;19936;-64
2022/03/24 01:45:00;;;;;;;;;;;;;;;;;;5051583;28;19964;-65
2022/03/24 01:47:26;;;;;;;;;;;;;;;;;;5052594;28;19924;-65
2022/03/24 01:49:53;;;;;;;;;;;;;;;;;;5052170;28;20290;-64
2022/03/24 01:52:19;;;;;;;;;;;;;;;;;;5050060;28;20051;-63
2022/03/24 01:54:46;;;;;;;;;;;;;;;;;;5052436;28;19928;-64
2022/03/24 01:57:12;;;;;;;;;;;;;;;;;;5052145;28;19932;-63
2022/03/24 01:59:38;;;;;;;;;;;;;;;;;;5052140;28;19925;-62
2022/03/24 02:02:04;;;;;;;;;;;;;;;;;;5050977;28;19931;-63
2022/03/24 02:04:35;;;;;;;;;;;;;;;;;;5050715;28;19948;-62
2022/03/24 02:07:01;;;;;;;;;;;;;;;;;;5051313;28;19995;-62
2022/03/24 02:09:27;;;;;;;;;;;;;;;;;;5051108;28;19925;-62
2022/03/24 02:11:53;;;;;;;;;;;;;;;;;;5051959;28;19929;-62
2022/03/24 02:14:19;;;;;;;;;;;;;;;;;;5050560;28;19963;-61
2022/03/24 02:16:46;;;;;;;;;;;;;;;;;;5052151;28;20011;-61
2022/03/24 02:19:12;;;;;;;;;;;;;;;;;;5053714;28;19971;-62
2022/03/24 02:21:39;;;;;;;;;;;;;;;;;;5052320;28;19928;-61
2022/03/24 02:24:05;;;;;;;;;;;;;;;;;;5050887;28;19925;-62
2022/03/24 02:26:31;;;;;;;;;;;;;;;;;;5051645;28;19932;-62
2022/03/24 02:28:57;;;;;;;;;;;;;;;;;;5051942;28;19924;-63
2022/03/24 02:31:23;;;;;;;;;;;;;;;;;;5051274;28;19938;-65
2022/03/24 02:34:37;;;;;;;;;;;;;;;;;;5050002;28;20382;-62
2022/03/24 02:36:36;;;;;;;;;;;;;;;;;;5050459;28;20028;-63
2022/03/24 02:39:02;;;;;;;;;;;;;;;;;;5050920;28;19924;-64
2022/03/24 02:41:28;;;;;;;;;;;;;;;;;;5050904;28;19937;-62
2022/03/24 02:43:54;;;;;;;;;;;;;;;;;;5049963;28;19924;-63
2022/03/24 02:46:21;;;;;;;;;;;;;;;;;;5050159;28;19933;-62
2022/03/24 02:48:47;;;;;;;;;;;;;;;;;;5051232;28;20012;-61
2022/03/24 02:51:13;;;;;;;;;;;;;;;;;;5050700;28;19925;-66
2022/03/24 02:53:39;;;;;;;;;;;;;;;;;;5049371;28;20390;-63
2022/03/24 02:56:05;;;;;;;;;;;;;;;;;;5049519;28;20405;-63
2022/03/24 02:58:32;;;;;;;;;;;;;;;;;;5038956;28;19971;-63
2022/03/24 03:00:58;;;;;;;;;;;;;;;;;;5050253;28;19955;-63
2022/03/24 03:03:24;;;;;;;;;;;;;;;;;;5049141;28;19936;-64
2022/03/24 03:05:50;;;;;;;;;;;;;;;;;;5050732;28;19925;-61
2022/03/24 03:08:17;;;;;;;;;;;;;;;;;;5049227;28;19964;-64
2022/03/24 03:10:43;;;;;;;;;;;;;;;;;;5050381;28;19924;-64
2022/03/24 03:13:09;;;;;;;;;;;;;;;;;;5050374;28;19943;-64
2022/03/24 03:15:35;;;;;;;;;;;;;;;;;;5047661;28;20385;-63
2022/03/24 03:18:03;;;;;;;;;;;;;;;;;;5050670;28;20059;-63
2022/03/24 03:20:29;;;;;;;;;;;;;;;;;;5050405;28;19925;-63
2022/03/24 03:22:55;;;;;;;;;;;;;;;;;;5050496;28;20238;-64
2022/03/24 03:25:22;;;;;;;;;;;;;;;;;;5051102;28;19968;-64
2022/03/24 03:27:48;;;;;;;;;;;;;;;;;;5051822;28;19928;-64
2022/03/24 03:30:14;;;;;;;;;;;;;;;;;;5050515;28;19933;-63
2022/03/24 03:32:42;;;;;;;;;;;;;;;;;;5049941;28;19935;-65
2022/03/24 03:35:08;;;;;;;;;;;;;;;;;;5050180;28;20384;-64
2022/03/24 03:37:34;;;;;;;;;;;;;;;;;;5049813;28;19979;-63
2022/03/24 03:40:01;;;;;;;;;;;;;;;;;;5050225;28;19929;-64
2022/03/24 03:42:27;;;;;;;;;;;;;;;;;;5048239;28;19925;-62
2022/03/24 03:44:54;;;;;;;;;;;;;;;;;;5050118;28;19924;-63
2022/03/24 03:47:20;;;;;;;;;;;;;;;;;;5049923;28;19948;-62
2022/03/24 03:49:46;;;;;;;;;;;;;;;;;;5049945;28;19925;-59
2022/03/24 03:52:13;;;;;;;;;;;;;;;;;;5047789;28;19925;-60
2022/03/24 03:54:39;;;;;;;;;;;;;;;;;;5049894;28;19928;-63
2022/03/24 03:57:05;;;;;;;;;;;;;;;;;;5048958;28;19932;-63
2022/03/24 03:59:31;;;;;;;;;;;;;;;;;;5049945;28;19925;-62
2022/03/24 04:01:59;;;;;;;;;;;;;;;;;;5048121;28;19925;-60
2022/03/24 04:04:25;;;;;;;;;;;;;;;;;;5048057;28;19932;-61
2022/03/24 04:06:51;;;;;;;;;;;;;;;;;;5048705;28;19924;-61
2022/03/24 04:09:17;;;;;;;;;;;;;;;;;;5049702;28;19924;-63
2022/03/24 04:11:43;;;;;;;;;;;;;;;;;;5049260;28;19932;-63
2022/03/24 04:14:10;;;;;;;;;;;;;;;;;;5047956;28;19936;-63
2022/03/24 04:16:36;;;;;;;;;;;;;;;;;;5049436;28;19931;-64
2022/03/24 04:19:05;;;;;;;;;;;;;;;;;;5049996;28;20366;-64
2022/03/24 04:21:31;;;;;;;;;;;;;;;;;;5049663;28;19925;-62
2022/03/24 04:23:57;;;;;;;;;;;;;;;;;;5048449;28;19925;-62
2022/03/24 04:26:23;;;;;;;;;;;;;;;;;;5049384;28;19924;-62
2022/03/24 04:28:49;;;;;;;;;;;;;;;;;;5049868;28;19936;-64
2022/03/24 04:31:16;;;;;;;;;;;;;;;;;;5049194;28;19925;-63
2022/03/24 04:33:42;;;;;;;;;;;;;;;;;;5047570;28;20377;-63
2022/03/24 04:36:10;;;;;;;;;;;;;;;;;;5049887;28;19947;-63
2022/03/24 04:38:37;;;;;;;;;;;;;;;;;;5047715;28;19933;-59
2022/03/24 04:41:04;;;;;;;;;;;;;;;;;;5049530;28;19929;-60
2022/03/24 04:43:31;;;;;;;;;;;;;;;;;;5047908;28;19924;-59
2022/03/24 04:45:57;;;;;;;;;;;;;;;;;;5049628;28;19931;-59
2022/03/24 04:48:23;;;;;;;;;;;;;;;;;;5049140;28;19929;-60
2022/03/24 04:50:49;;;;;;;;;;;;;;;;;;5049461;28;20406;-61
2022/03/24 04:53:16;;;;;;;;;;;;;;;;;;5046490;28;19925;-61
2022/03/24 04:55:42;;;;;;;;;;;;;;;;;;5046253;28;19932;-60
2022/03/24 04:58:08;;;;;;;;;;;;;;;;;;5049181;28;19968;-60
2022/03/24 05:00:34;;;;;;;;;;;;;;;;;;5048974;28;19939;-63
2022/03/24 05:03:00;;;;;;;;;;;;;;;;;;5046279;28;19932;-63
2022/03/24 05:05:27;;;;;;;;;;;;;;;;;;5049388;28;20401;-62
2022/03/24 05:07:54;;;;;;;;;;;;;;;;;;5048585;28;19933;-64
2022/03/24 05:10:20;;;;;;;;;;;;;;;;;;5052734;28;19976;-63
2022/03/24 05:12:46;;;;;;;;;;;;;;;;;;5052721;28;19932;-64
2022/03/24 05:15:12;;;;;;;;;;;;;;;;;;5049383;28;19931;-64
2022/03/24 05:17:38;;;;;;;;;;;;;;;;;;5053384;28;20302;-68
2022/03/24 05:20:05;;;;;;;;;;;;;;;;;;5053416;28;19928;-63
2022/03/24 05:22:31;;;;;;;;;;;;;;;;;;5052730;28;20412;-68
2022/03/24 05:24:57;;;;;;;;;;;;;;;;;;5051585;28;19948;-65
2022/03/24 05:27:23;;;;;;;;;;;;;;;;;;5052528;28;19936;-64
2022/03/24 05:29:49;;;;;;;;;;;;;;;;;;5053112;28;19924;-65
2022/03/24 05:32:16;;;;;;;;;;;;;;;;;;5052119;28;19932;-63
2022/03/24 05:34:43;;;;;;;;;;;;;;;;;;5051352;28;19932;-63
2022/03/24 05:37:10;;;;;;;;;;;;;;;;;;5053233;28;19947;-65
2022/03/24 05:39:36;;;;;;;;;;;;;;;;;;5051833;28;19924;-66
2022/03/24 05:42:03;;;;;;;;;;;;;;;;;;5052016;28;20023;-66
2022/03/24 05:44:29;;;;;;;;;;;;;;;;;;5050408;28;20445;-65
2022/03/24 05:46:55;;;;;;;;;;;;;;;;;;5047460;28;19929;-66
2022/03/24 05:49:21;;;;;;;;;;;;;;;;;;5044041;28;19932;-66
2022/03/24 05:51:47;;;;;;;;;;;;;;;;;;5052343;28;19924;-65
2022/03/24 05:54:14;;;;;;;;;;;;;;;;;;5050602;28;19924;-66
2022/03/24 05:56:40;;;;;;;;;;;;;;;;;;5051883;28;19929;-67
2022/03/24 05:59:06;;;;;;;;;;;;;;;;;;5052587;28;19925;-66
2022/03/24 06:01:33;;;;;;;;;;;;;;;;;;5051818;28;19925;-60
2022/03/24 06:04:00;;;;;;;;;;;;;;;;;;5050898;28;20035;-70
2022/03/24 06:06:26;;;;;;;;;;;;;;;;;;5052148;28;19954;-70
2022/03/24 06:08:52;;;;;;;;;;;;;;;;;;5051213;28;20327;-70
2022/03/24 06:11:19;;;;;;;;;;;;;;;;;;5051283;28;19972;-70
2022/03/24 06:13:45;;;;;;;;;;;;;;;;;;5051347;28;19932;-71
2022/03/24 06:16:13;;;;;;;;;;;;;;;;;;5050110;28;19925;-71
2022/03/24 06:18:39;;;;;;;;;;;;;;;;;;4349653;28;10000773;-70
2022/03/24 06:21:06;;;;;;;;;;;;;;;;;;5045417;28;19931;-71
2022/03/24 06:23:32;;;;;;;;;;;;;;;;;;5049172;28;19932;-71
2022/03/24 06:25:58;;;;;;;;;;;;;;;;;;5047623;28;19924;-69
2022/03/24 06:28:24;;;;;;;;;;;;;;;;;;5052159;28;19929;-70
2022/03/24 06:30:50;;;;;;;;;;;;;;;;;;5052362;28;19932;-71
2022/03/24 06:33:17;;;;;;;;;;;;;;;;;;5052054;28;19929;-71
2022/03/24 06:35:43;;;;;;;;;;;;;;;;;;5045062;28;20044;-70
2022/03/24 06:38:09;;;;;;;;;;;;;;;;;;5049079;28;20219;-71
2022/03/24 06:40:36;;;;;;;;;;;;;;;;;;5047935;28;19971;-72
2022/03/24 06:43:02;;;;;;;;;;;;;;;;;;5048634;28;19990;-71
2022/03/24 06:45:28;;;;;;;;;;;;;;;;;;5047102;28;19929;-70
2022/03/24 06:47:54;;;;;;;;;;;;;;;;;;5048237;28;19964;-72
2022/03/24 06:50:21;;;;;;;;;;;;;;;;;;5048500;28;19928;-70
2022/03/24 06:52:47;;;;;;;;;;;;;;;;;;5047971;28;19928;-70
2022/03/24 06:55:13;;;;;;;;;;;;;;;;;;5042710;28;19940;-71
2022/03/24 06:57:40;;;;;;;;;;;;;;;;;;5047927;28;19925;-71
2022/03/24 07:00:06;;;;;;;;;;;;;;;;;;5047392;28;19966;-72
2022/03/24 07:02:32;;;;;;;;;;;;;;;;;;5047822;28;19925;-72
2022/03/24 07:04:58;;;;;;;;;;;;;;;;;;5042548;28;19925;-72
2022/03/24 07:07:25;;;;;;;;;;;;;;;;;;5047659;28;19928;-70
2022/03/24 07:09:51;;;;;;;;;;;;;;;;;;5047133;28;20008;-72
2022/03/24 07:12:18;;;;;;;;;;;;;;;;;;5047747;28;19935;-72
2022/03/24 07:14:44;;;;;;;;;;;;;;;;;;5035172;28;19959;-69
2022/03/24 07:17:10;;;;;;;;;;;;;;;;;;5046007;28;19928;-71
2022/03/24 07:19:36;;;;;;;;;;;;;;;;;;5048789;28;20304;-71
2022/03/24 07:22:02;;;;;;;;;;;;;;;;;;5050924;28;20246;-71
2022/03/24 07:24:28;;;;;;;;;;;;;;;;;;5048592;28;19929;-70
2022/03/24 07:26:55;;;;;;;;;;;;;;;;;;5048176;28;19935;-71
2022/03/24 07:29:21;;;;;;;;;;;;;;;;;;5049054;28;19935;-71
2022/03/24 07:31:47;;;;;;;;;;;;;;;;;;5048409;28;19936;-71
2022/03/24 07:34:13;;;;;;;;;;;;;;;;;;5035463;28;19928;-72
2022/03/24 07:36:40;;;;;;;;;;;;;;;;;;5047479;28;19929;-72
2022/03/24 07:39:06;;;;;;;;;;;;;;;;;;5048423;28;20012;-72
2022/03/24 07:41:32;;;;;;;;;;;;;;;;;;5048529;28;19931;-71
2022/03/24 07:43:59;;;;;;;;;;;;;;;;;;5048807;28;19932;-72
2022/03/24 07:46:25;;;;;;;;;;;;;;;;;;5047909;28;19925;-71
2022/03/24 07:48:51;;;;;;;;;;;;;;;;;;5048798;28;19931;-72
2022/03/24 07:51:18;;;;;;;;;;;;;;;;;;5048535;28;20651;-72
2022/03/24 07:53:44;;;;;;;;;;;;;;;;;;5048523;28;19929;-71
2022/03/24 07:56:11;;;;;;;;;;;;;;;;;;5047243;28;19929;-72
2022/03/24 07:58:38;;;;;;;;;;;;;;;;;;5049517;28;19929;-70
2022/03/24 08:01:05;;;;;;;;;;;;;;;;;;5049272;28;19928;-70
2022/03/24 08:03:31;;;;;;;;;;;;;;;;;;5049600;28;19932;-71
2022/03/24 08:05:58;;;;;;;;;;;;;;;;;;5047811;28;19937;-70
2022/03/24 08:08:24;;;;;;;;;;;;;;;;;;5049789;28;19933;-71
2022/03/24 08:10:50;;;;;;;;;;;;;;;;;;5048265;28;20401;-72
2022/03/24 08:13:16;;;;;;;;;;;;;;;;;;5049778;28;20403;-71
2022/03/24 08:15:42;;;;;;;;;;;;;;;;;;5049268;28;20171;-72
2022/03/24 08:18:09;;;;;;;;;;;;;;;;;;5047979;28;19932;-71
2022/03/24 08:20:35;;;;;;;;;;;;;;;;;;5050171;28;19975;-71
2022/03/24 08:23:01;;;;;;;;;;;;;;;;;;5050217;28;19982;-71
2022/03/24 08:25:28;;;;;;;;;;;;;;;;;;5048254;28;19999;-71
2022/03/24 08:27:54;;;;;;;;;;;;;;;;;;5045760;28;19929;-72
2022/03/24 08:30:20;;;;;;;;;;;;;;;;;;5046921;28;19935;-72
2022/03/24 08:32:46;;;;;;;;;;;;;;;;;;5046707;28;19939;-72
2022/03/24 08:35:12;;;;;;;;;;;;;;;;;;5046759;28;19936;-73
2022/03/24 08:37:38;;;;;;;;;;;;;;;;;;5044773;28;20214;-72
2022/03/24 08:40:04;;;;;;;;;;;;;;;;;;5046781;28;20195;-72
2022/03/24 08:42:31;;;;;;;;;;;;;;;;;;5046046;28;19936;-73
2022/03/24 08:44:57;;;;;;;;;;;;;;;;;;5050411;28;19929;-72
2022/03/24 08:47:23;;;;;;;;;;;;;;;;;;5049552;28;20397;-72
2022/03/24 08:49:49;;;;;;;;;;;;;;;;;;5050589;28;19954;-71
2022/03/24 08:52:15;;;;;;;;;;;;;;;;;;5049651;28;19929;-70
2022/03/24 08:54:41;;;;;;;;;;;;;;;;;;5042473;28;19929;-72
2022/03/24 08:57:08;;;;;;;;;;;;;;;;;;5050759;28;19929;-72
2022/03/24 08:59:35;;;;;;;;;;;;;;;;;;5051088;28;19939;-72
2022/03/24 09:02:01;;;;;;;;;;;;;;;;;;5050654;28;20401;-71
2022/03/24 09:04:27;;;;;;;;;;;;;;;;;;5050698;28;20301;-73
2022/03/24 09:06:53;;;;;;;;;;;;;;;;;;5051554;28;19924;-72
2022/03/24 09:09:22;;;;;;;;;;;;;;;;;;5054018;28;19925;-71
2022/03/24 09:11:48;;;;;;;;;;;;;;;;;;5054129;28;20212;-72
2022/03/24 09:14:15;;;;;;;;;;;;;;;;;;5057358;28;20330;-72
2022/03/24 09:16:41;;;;;;;;;;;;;;;;;;5054072;28;19924;-73
2022/03/24 09:19:08;;;;;;;;;;;;;;;;;;5053479;28;19929;-71
2022/03/24 09:21:34;;;;;;;;;;;;;;;;;;5052926;28;19952;-71
2022/03/24 09:24:00;;;;;;;;;;;;;;;;;;5054456;28;19948;-72
2022/03/24 09:26:26;;;;;;;;;;;;;;;;;;5050322;28;19933;-71
2022/03/24 09:28:52;;;;;;;;;;;;;;;;;;5052307;28;19936;-71
2022/03/24 09:31:18;;;;;;;;;;;;;;;;;;5052628;28;20051;-71
2022/03/24 09:33:45;;;;;;;;;;;;;;;;;;5052819;28;19928;-71
2022/03/24 09:36:11;;;;;;;;;;;;;;;;;;5052344;28;20043;-72
2022/03/24 09:38:37;;;;;;;;;;;;;;;;;;5052347;28;19929;-72
2022/03/24 09:41:05;;;;;;;;;;;;;;;;;;5049990;28;19924;-72
2022/03/24 09:43:31;;;;;;;;;;;;;;;;;;5049824;28;20407;-72
2022/03/24 09:45:57;;;;;;;;;;;;;;;;;;5049327;28;20413;-72
2022/03/24 09:48:23;;;;;;;;;;;;;;;;;;5050171;28;19928;-70
2022/03/24 09:50:50;;;;;;;;;;;;;;;;;;5050216;28;19925;-71
2022/03/24 09:53:17;;;;;;;;;;;;;;;;;;5049846;28;20244;-72
2022/03/24 09:55:44;;;;;;;;;;;;;;;;;;5048976;28;19925;-72
2022/03/24 09:58:11;;;;;;;;;;;;;;;;;;5051983;28;20039;-71
2022/03/24 10:00:37;;;;;;;;;;;;;;;;;;5050246;28;19933;-70
2022/03/24 10:03:03;;;;;;;;;;;;;;;;;;5051062;28;19929;-71
2022/03/24 10:05:29;;;;;;;;;;;;;;;;;;5050937;28;20278;-70
2022/03/24 10:07:55;;;;;;;;;;;;;;;;;;5050531;28;20317;-71
2022/03/24 10:10:22;;;;;;;;;;;;;;;;;;5050319;28;19929;-71
2022/03/24 10:12:48;;;;;;;;;;;;;;;;;;5050380;28;19935;-71
2022/03/24 10:15:14;;;;;;;;;;;;;;;;;;5046628;28;20382;-72
2022/03/24 10:17:40;;;;;;;;;;;;;;;;;;5046637;28;19929;-71
2022/03/24 10:20:07;;;;;;;;;;;;;;;;;;5049438;28;19940;-71
2022/03/24 10:22:33;;;;;;;;;;;;;;;;;;5048889;28;19968;-71
2022/03/24 10:24:59;;;;;;;;;;;;;;;;;;5048880;28;19929;-73
2022/03/24 10:27:25;;;;;;;;;;;;;;;;;;5043444;28;20206;-72
2022/03/24 10:29:54;;;;;;;;;;;;;;;;;;5048073;28;19933;-71
2022/03/24 10:32:20;;;;;;;;;;;;;;;;;;5049026;28;19925;-71
2022/03/24 10:34:48;;;;;;;;;;;;;;;;;;5048491;28;19925;-71
2022/03/24 10:37:17;;;;;;;;;;;;;;;;;;5049619;28;19935;-70
2022/03/24 10:39:43;;;;;;;;;;;;;;;;;;5049429;28;19929;-71
2022/03/24 10:42:10;;;;;;;;;;;;;;;;;;5048358;28;20382;-71
2022/03/24 10:44:36;;;;;;;;;;;;;;;;;;5036626;28;19925;-71
2022/03/24 10:47:02;;;;;;;;;;;;;;;;;;5048656;28;20447;-72
2022/03/24 10:49:30;;;;;;;;;;;;;;;;;;5049579;28;20285;-71
2022/03/24 10:51:56;;;;;;;;;;;;;;;;;;5048030;28;20316;-71
2022/03/24 10:54:22;;;;;;;;;;;;;;;;;;5048424;28;19928;-72
2022/03/24 10:56:48;;;;;;;;;;;;;;;;;;5048455;28;19929;-71
2022/03/24 10:59:14;;;;;;;;;;;;;;;;;;5048597;28;20334;-72
2022/03/24 11:01:41;;;;;;;;;;;;;;;;;;5048244;28;20305;-72
2022/03/24 11:04:07;;;;;;;;;;;;;;;;;;5048731;28;20012;-71
2022/03/24 11:06:33;;;;;;;;;;;;;;;;;;5047237;28;19929;-72
2022/03/24 11:08:59;;;;;;;;;;;;;;;;;;5044994;28;19948;-72
2022/03/24 11:11:26;;;;;;;;;;;;;;;;;;5041771;28;20029;-71
2022/03/24 11:13:52;;;;;;;;;;;;;;;;;;5048981;28;19940;-73
2022/03/24 11:16:18;;;;;;;;;;;;;;;;;;5035049;28;19947;-72
2022/03/24 11:18:44;;;;;;;;;;;;;;;;;;5046940;28;19940;-71
2022/03/24 11:21:11;;;;;;;;;;;;;;;;;;5048650;28;19924;-72
2022/03/24 11:23:39;;;;;;;;;;;;;;;;;;5047942;28;19933;-72
2022/03/24 11:26:15;;;;;;;;;;;;;;;;;;5040313;28;9999601;-72
2022/03/24 11:28:43;;;;;;;;;;;;;;;;;;5045367;28;19928;-72
2022/03/24 11:31:10;;;;;;;;;;;;;;;;;;5048144;28;19944;-71
2022/03/24 11:33:36;;;;;;;;;;;;;;;;;;5048237;28;20393;-71
2022/03/24 11:36:02;;;;;;;;;;;;;;;;;;5048159;28;19928;-72
2022/03/24 11:38:28;;;;;;;;;;;;;;;;;;5048118;28;20378;-72
2022/03/24 11:40:54;;;;;;;;;;;;;;;;;;5048709;28;19951;-73
2022/03/24 11:43:21;;;;;;;;;;;;;;;;;;5047484;28;19932;-72
2022/03/24 11:45:47;;;;;;;;;;;;;;;;;;5047603;28;19929;-73
2022/03/24 11:48:14;;;;;;;;;;;;;;;;;;5046442;28;19925;-73
2022/03/24 11:50:41;;;;;;;;;;;;;;;;;;5047762;28;20032;-72
2022/03/24 11:53:07;;;;;;;;;;;;;;;;;;5047559;28;19935;-73
2022/03/24 11:55:34;;;;;;;;;;;;;;;;;;5047369;28;19932;-73
2022/03/24 11:58:01;;;;;;;;;;;;;;;;;;5044189;28;20389;-73
2022/03/24 12:00:28;;;;;;;;;;;;;;;;;;5039689;28;19937;-73
2022/03/24 12:02:54;;;;;;;;;;;;;;;;;;5047682;28;19932;-74
2022/03/24 12:05:20;;;;;;;;;;;;;;;;;;5047127;28;19932;-73
2022/03/24 12:07:46;;;;;;;;;;;;;;;;;;5047001;28;19929;-74
2022/03/24 12:10:13;;;;;;;;;;;;;;;;;;5047415;28;19929;-73
2022/03/24 12:12:39;;;;;;;;;;;;;;;;;;5047236;28;19979;-73
2022/03/24 12:15:05;;;;;;;;;;;;;;;;;;5045527;28;19928;-73
2022/03/24 12:17:32;;;;;;;;;;;;;;;;;;5047151;28;19929;-72
2022/03/24 12:19:59;;;;;;;;;;;;;;;;;;5047178;28;19925;-72
2022/03/24 12:22:25;;;;;;;;;;;;;;;;;;5047640;28;20309;-74
2022/03/24 12:24:51;;;;;;;;;;;;;;;;;;5046366;28;19948;-73
2022/03/24 12:27:17;;;;;;;;;;;;;;;;;;5044489;28;19939;-72
2022/03/24 12:29:43;;;;;;;;;;;;;;;;;;5046262;28;19928;-74
2022/03/24 12:32:10;;;;;;;;;;;;;;;;;;5047956;28;19925;-72
2022/03/24 12:34:38;;;;;;;;;;;;;;;;;;5047442;28;20517;-73
2022/03/24 12:37:04;;;;;;;;;;;;;;;;;;5052809;28;19928;-72
2022/03/24 12:39:30;;;;;;;;;;;;;;;;;;5050861;28;19933;-72
2022/03/24 12:41:57;;;;;;;;;;;;;;;;;;5052876;28;19933;-71
2022/03/24 12:44:23;;;;;;;;;;;;;;;;;;5052365;28;19935;-73
2022/03/24 12:46:49;;;;;;;;;;;;;;;;;;5047824;28;20204;-71
2022/03/24 12:49:15;;;;;;;;;;;;;;;;;;5044667;28;19929;-74
2022/03/24 12:51:42;;;;;;;;;;;;;;;;;;5046266;28;19929;-71
2022/03/24 12:54:08;;;;;;;;;;;;;;;;;;5046547;28;19928;-72
2022/03/24 12:56:34;;;;;;;;;;;;;;;;;;5043598;28;20296;-71
2022/03/24 12:59:03;;;;;;;;;;;;;;;;;;5046913;28;19935;-72
2022/03/24 13:01:30;;;;;;;;;;;;;;;;;;5044471;28;19979;-72
2022/03/24 13:03:56;;;;;;;;;;;;;;;;;;5046210;28;20023;-72
2022/03/24 13:06:22;;;;;;;;;;;;;;;;;;5043818;28;19933;-72
2022/03/24 13:08:49;;;;;;;;;;;;;;;;;;5044727;28;19929;-71
2022/03/24 13:11:15;;;;;;;;;;;;;;;;;;5044428;28;19925;-71
2022/03/24 13:13:41;;;;;;;;;;;;;;;;;;5045260;28;19925;-72
2022/03/24 13:16:07;;;;;;;;;;;;;;;;;;5045885;28;19936;-71
2022/03/24 13:18:34;;;;;;;;;;;;;;;;;;5046975;28;20334;-72
2022/03/24 13:21:00;;;;;;;;;;;;;;;;;;5039300;28;19928;-72
2022/03/24 13:23:28;;;;;;;;;;;;;;;;;;5044116;28;19925;-72
2022/03/24 13:25:54;;;;;;;;;;;;;;;;;;5046806;28;20011;-71
2022/03/24 13:28:20;;;;;;;;;;;;;;;;;;5045110;28;19936;-72
2022/03/24 13:30:46;;;;;;;;;;;;;;;;;;5045720;28;19932;-71
2022/03/24 13:33:14;;;;;;;;;;;;;;;;;;5050016;28;19925;-72
2022/03/24 13:35:40;;;;;;;;;;;;;;;;;;5049198;28;20362;-71
2022/03/24 13:38:06;;;;;;;;;;;;;;;;;;5050632;28;19935;-72
2022/03/24 13:40:32;;;;;;;;;;;;;;;;;;5050295;28;19951;-71
2022/03/24 13:42:58;;;;;;;;;;;;;;;;;;5050061;28;19940;-71
2022/03/24 13:45:25;;;;;;;;;;;;;;;;;;5050021;28;19933;-72
2022/03/24 13:47:51;;;;;;;;;;;;;;;;;;5050841;28;19940;-71
2022/03/24 13:50:18;;;;;;;;;;;;;;;;;;5041332;28;19987;-71
2022/03/24 13:52:44;;;;;;;;;;;;;;;;;;5049643;28;20406;-71
2022/03/24 13:55:11;;;;;;;;;;;;;;;;;;5049005;28;20394;-72
2022/03/24 13:57:37;;;;;;;;;;;;;;;;;;5050232;28;20297;-71
2022/03/24 14:00:05;;;;;;;;;;;;;;;;;;5049399;28;19936;-72
2022/03/24 14:02:31;;;;;;;;;;;;;;;;;;5044969;28;20053;-73
2022/03/24 14:04:57;;;;;;;;;;;;;;;;;;5047410;28;19935;-72
2022/03/24 14:07:23;;;;;;;;;;;;;;;;;;5047470;28;19928;-71
2022/03/24 14:09:50;;;;;;;;;;;;;;;;;;5046932;28;20385;-71
2022/03/24 14:12:16;;;;;;;;;;;;;;;;;;5047738;28;19969;-60
2022/03/24 14:14:42;;;;;;;;;;;;;;;;;;5049143;28;19929;-59
2022/03/24 14:17:08;;;;;;;;;;;;;;;;;;5048473;28;19951;-72
2022/03/24 14:19:34;;;;;;;;;;;;;;;;;;5045296;28;20556;-73
2022/03/24 14:22:01;;;;;;;;;;;;;;;;;;5046563;28;19952;-71
2022/03/24 14:24:27;;;;;;;;;;;;;;;;;;5047301;28;19929;-72
2022/03/24 14:26:54;;;;;;;;;;;;;;;;;;5048460;28;19925;-71
2022/03/24 14:29:21;;;;;;;;;;;;;;;;;;5048404;28;19929;-71
2022/03/24 14:31:47;;;;;;;;;;;;;;;;;;5045898;28;19929;-73
2022/03/24 14:34:13;;;;;;;;;;;;;;;;;;5046495;28;19979;-72
2022/03/24 14:36:39;;;;;;;;;;;;;;;;;;5049524;28;19929;-72
2022/03/24 14:39:06;;;;;;;;;;;;;;;;;;5048667;28;19925;-71
2022/03/24 14:41:32;;;;;;;;;;;;;;;;;;5046950;28;19933;-71
2022/03/24 14:43:58;;;;;;;;;;;;;;;;;;5048805;28;19929;-70
2022/03/24 14:46:25;;;;;;;;;;;;;;;;;;5048735;28;19939;-71
2022/03/24 14:48:51;;;;;;;;;;;;;;;;;;5048254;28;19928;-71
2022/03/24 14:51:17;;;;;;;;;;;;;;;;;;5047071;28;19932;-71
2022/03/24 14:53:43;;;;;;;;;;;;;;;;;;5048249;28;19925;-71
2022/03/24 14:56:11;;;;;;;;;;;;;;;;;;5046654;28;19925;-70
2022/03/24 14:58:37;;;;;;;;;;;;;;;;;;5047628;28;20415;-71
2022/03/24 15:01:03;;;;;;;;;;;;;;;;;;5045474;28;19929;-71
2022/03/24 15:03:29;;;;;;;;;;;;;;;;;;5046639;28;19929;-69
2022/03/24 15:05:55;;;;;;;;;;;;;;;;;;5047648;28;19928;-70
2022/03/24 15:08:21;;;;;;;;;;;;;;;;;;5046155;28;19940;-71
2022/03/24 15:10:48;;;;;;;;;;;;;;;;;;5043878;28;19939;-70
2022/03/24 15:13:15;;;;;;;;;;;;;;;;;;5043620;28;19929;-71
2022/03/24 15:18:25;;;;;;;;;;;;;;;;;;5047977;28;19972;-71
2022/03/24 15:20:51;;;;;;;;;;;;;;;;;;5046588;28;19935;-70
2022/03/24 15:23:17;;;;;;;;;;;;;;;;;;5047546;28;19973;-71
2022/03/24 15:25:44;;;;;;;;;;;;;;;;;;5042226;28;19929;-71
2022/03/24 15:28:10;;;;;;;;;;;;;;;;;;5046936;28;19929;-71
2022/03/24 15:30:36;;;;;;;;;;;;;;;;;;5045528;28;20259;-70
2022/03/24 15:33:02;;;;;;;;;;;;;;;;;;5048030;28;19928;-70
2022/03/24 15:35:28;;;;;;;;;;;;;;;;;;5047991;28;19936;-70
2022/03/24 15:37:55;;;;;;;;;;;;;;;;;;5047556;28;20356;-70
2022/03/24 15:40:21;;;;;;;;;;;;;;;;;;5045763;28;19933;-70
2022/03/24 15:42:47;;;;;;;;;;;;;;;;;;5047558;28;19976;-61
2022/03/24 15:45:15;;;;;;;;;;;;;;;;;;5047793;28;19931;-63
2022/03/24 15:47:41;;;;;;;;;;;;;;;;;;5048243;28;20220;-59
2022/03/24 15:50:10;;;;;;;;;;;;;;;;;;5045233;28;20413;-69
2022/03/24 15:52:37;;;;;;;;;;;;;;;;;;5048495;28;19928;-68
2022/03/24 15:55:03;;;;;;;;;;;;;;;;;;5048324;28;19929;-70
2022/03/24 15:57:29;;;;;;;;;;;;;;;;;;5048401;28;19936;-69
2022/03/24 15:59:55;;;;;;;;;;;;;;;;;;5043596;28;19936;-70
2022/03/24 16:02:22;;;;;;;;;;;;;;;;;;5045127;28;19928;-70
2022/03/24 16:04:48;;;;;;;;;;;;;;;;;;5042999;28;22298;-71
2022/03/24 16:07:14;;;;;;;;;;;;;;;;;;5044122;28;19929;-72
2022/03/24 16:09:40;;;;;;;;;;;;;;;;;;5045161;28;19940;-70
2022/03/24 16:12:07;;;;;;;;;;;;;;;;;;5044657;28;19928;-71
2022/03/24 16:14:33;;;;;;;;;;;;;;;;;;5043853;28;19936;-70
2022/03/24 16:16:59;;;;;;;;;;;;;;;;;;5045375;28;20138;-71
2022/03/24 16:19:26;;;;;;;;;;;;;;;;;;5045840;28;19925;-69
2022/03/24 16:21:52;;;;;;;;;;;;;;;;;;5046578;28;19929;-71
2022/03/24 16:24:19;;;;;;;;;;;;;;;;;;5046590;28;19955;-70
2022/03/24 16:26:45;;;;;;;;;;;;;;;;;;5050234;28;20386;-69
2022/03/24 16:29:12;;;;;;;;;;;;;;;;;;5046731;28;19933;-69
2022/03/24 16:31:40;;;;;;;;;;;;;;;;;;5045909;28;20366;-68
2022/03/24 16:34:06;;;;;;;;;;;;;;;;;;5046469;28;19932;-70
2022/03/24 16:36:32;;;;;;;;;;;;;;;;;;5046558;28;20386;-70
2022/03/24 16:38:59;;;;;;;;;;;;;;;;;;5046450;28;19929;-69
2022/03/24 16:41:25;;;;;;;;;;;;;;;;;;5046608;28;19936;-70